Time;durP1;ratioP1;P1;durP2;ratioP2;P2;SDS_P1;SDS_P2;PMS_P1;PMS_P2;Temp;Humidity;BMP_temperature;BMP_pressure;BME280_temperature;BME280_humidity;BME280_pressure;Samples;Min_cycle;Max_cycle;Signal;HPM_P1;HPM_P2
2022/01/29 00:02:00;;;;;;;28.92;17.10;;;7.20;99.90;;;;;;5055105;28;20033;-75
2022/01/29 00:04:25;;;;;;;30.42;17.98;;;7.20;99.90;;;;;;5049976;28;20112;-75
2022/01/29 00:06:51;;;;;;;29.95;17.67;;;7.30;99.90;;;;;;5035271;28;20037;-76
2022/01/29 00:09:16;;;;;;;30.63;17.48;;;7.20;99.90;;;;;;5060264;28;20037;-74
2022/01/29 00:11:43;;;;;;;31.17;18.52;;;7.20;99.90;;;;;;5058250;28;20047;-75
2022/01/29 00:14:09;;;;;;;27.25;17.42;;;7.20;99.90;;;;;;5066938;28;20501;-76
2022/01/29 00:16:36;;;;;;;32.25;18.85;;;7.20;99.90;;;;;;5066824;28;20032;-75
2022/01/29 00:19:01;;;;;;;30.10;17.38;;;7.20;99.90;;;;;;5065649;28;20490;-75
2022/01/29 00:21:27;;;;;;;24.88;16.65;;;7.30;99.90;;;;;;5058988;28;20082;-75
2022/01/29 00:23:53;;;;;;;28.35;17.63;;;7.20;99.90;;;;;;5046372;28;20036;-75
2022/01/29 00:26:21;;;;;;;25.35;17.60;;;7.20;99.90;;;;;;5062827;28;20037;-75
2022/01/29 00:28:47;;;;;;;30.75;17.13;;;7.20;99.90;;;;;;5069739;28;20040;-75
2022/01/29 00:31:13;;;;;;;29.17;19.13;;;7.20;99.90;;;;;;5063940;28;20577;-75
2022/01/29 00:33:38;;;;;;;28.63;19.63;;;7.20;99.90;;;;;;5064084;28;20398;-75
2022/01/29 00:36:05;;;;;;;29.83;19.92;;;7.20;99.90;;;;;;5061246;28;20040;-75
2022/01/29 00:38:31;;;;;;;27.02;18.98;;;7.20;99.90;;;;;;5072327;28;20041;-75
2022/01/29 00:40:57;;;;;;;27.58;19.52;;;7.20;99.90;;;;;;5067875;28;20095;-76
2022/01/29 00:43:23;;;;;;;31.20;20.00;;;7.20;99.90;;;;;;5069224;28;20035;-76
2022/01/29 00:45:48;;;;;;;28.30;20.50;;;7.10;99.90;;;;;;5071120;28;20470;-76
2022/01/29 00:48:14;;;;;;;31.63;21.33;;;7.10;99.90;;;;;;5058898;28;20130;-76
2022/01/29 00:50:39;;;;;;;32.78;22.77;;;7.20;99.90;;;;;;5067219;28;20071;-76
2022/01/29 00:53:05;;;;;;;28.65;19.50;;;7.20;99.90;;;;;;5070810;28;20040;-76
2022/01/29 00:55:31;;;;;;;29.27;19.15;;;7.10;99.90;;;;;;5060542;28;20112;-75
2022/01/29 00:57:56;;;;;;;30.60;21.98;;;7.20;99.90;;;;;;5060962;28;20459;-76
2022/01/29 01:00:22;;;;;;;29.75;21.55;;;7.20;99.90;;;;;;5061797;28;20041;-75
2022/01/29 01:02:48;;;;;;;27.20;20.50;;;7.10;99.90;;;;;;5068605;28;20584;-76
2022/01/29 01:05:13;;;;;;;27.65;20.95;;;7.10;99.90;;;;;;5061488;28;20063;-76
2022/01/29 01:07:39;;;;;;;30.70;21.23;;;7.10;99.90;;;;;;5067193;28;20059;-74
2022/01/29 01:10:07;;;;;;;30.15;21.73;;;7.10;99.90;;;;;;5063590;28;20367;-76
2022/01/29 01:12:33;;;;;;;27.33;20.02;;;7.10;99.90;;;;;;5060839;28;20045;-77
2022/01/29 01:14:59;;;;;;;35.78;23.10;;;7.10;99.90;;;;;;5061870;28;20047;-76
2022/01/29 01:17:24;;;;;;;29.80;21.58;;;7.10;99.90;;;;;;5066936;28;20037;-76
2022/01/29 01:19:50;;;;;;;27.58;21.10;;;7.10;99.90;;;;;;5068326;28;20029;-76
2022/01/29 01:22:16;;;;;;;32.30;21.80;;;7.10;99.90;;;;;;5041060;28;20535;-76
2022/01/29 01:24:42;;;;;;;26.20;19.23;;;7.10;99.90;;;;;;5071175;28;20483;-76
2022/01/29 01:27:08;;;;;;;31.42;19.75;;;7.20;99.90;;;;;;5054834;28;20123;-76
2022/01/29 01:29:34;;;;;;;26.92;20.70;;;7.20;99.90;;;;;;5062273;28;20602;-76
2022/01/29 01:31:59;;;;;;;27.92;19.90;;;7.20;99.90;;;;;;5065639;28;20047;-75
2022/01/29 01:34:29;;;;;;;27.27;19.15;;;7.20;99.90;;;;;;5053827;28;20044;-76
2022/01/29 01:37:00;;;;;;;25.75;18.42;;;7.20;99.90;;;;;;5069035;28;20055;-77
2022/01/29 01:39:30;;;;;;;26.42;18.23;;;7.20;99.90;;;;;;5058679;28;20064;-75
2022/01/29 01:42:04;;;;;;;27.77;19.98;;;7.30;99.90;;;;;;5051659;28;20036;-75
2022/01/29 01:44:46;;;;;;;25.08;15.70;;;7.30;99.90;;;;;;5065445;28;20442;-75
2022/01/29 01:47:12;;;;;;;30.02;16.90;;;7.40;99.90;;;;;;5069449;28;20021;-75
2022/01/29 01:49:38;;;;;;;26.88;18.80;;;7.50;99.90;;;;;;5065880;28;20036;-76
2022/01/29 01:52:08;;;;;;;32.78;19.42;;;7.40;99.90;;;;;;5075401;22;20048;-76
2022/01/29 01:54:34;;;;;;;28.60;19.65;;;7.40;99.90;;;;;;5053079;28;20140;-76
2022/01/29 01:57:03;;;;;;;28.65;18.17;;;7.40;99.90;;;;;;5059310;28;20067;-76
2022/01/29 01:59:29;;;;;;;27.60;17.67;;;7.40;99.90;;;;;;5065893;28;20067;-75
2022/01/29 02:01:54;;;;;;;29.08;19.98;;;7.50;99.90;;;;;;5069837;28;20068;-76
2022/01/29 02:04:20;;;;;;;25.65;17.55;;;7.50;99.90;;;;;;5070700;28;20119;-76
2022/01/29 02:06:49;;;;;;;28.13;18.75;;;7.50;99.90;;;;;;5066408;28;20038;-75
2022/01/29 02:09:17;;;;;;;29.60;19.88;;;7.60;99.90;;;;;;5069899;28;20131;-76
2022/01/29 02:11:50;;;;;;;28.80;17.50;;;7.50;99.90;;;;;;5070355;28;20040;-76
2022/01/29 02:14:17;;;;;;;28.52;16.70;;;7.60;99.90;;;;;;5066939;28;20696;-75
2022/01/29 02:16:43;;;;;;;36.67;19.88;;;7.70;99.90;;;;;;5067857;28;20115;-75
2022/01/29 02:19:09;;;;;;;28.92;17.60;;;7.70;99.90;;;;;;5068785;28;20124;-75
2022/01/29 02:21:38;;;;;;;32.10;18.92;;;7.70;99.90;;;;;;5068058;28;20051;-76
2022/01/29 02:24:04;;;;;;;33.78;19.30;;;7.70;99.90;;;;;;5053304;28;20074;-75
2022/01/29 02:26:30;;;;;;;29.40;15.48;;;7.70;99.90;;;;;;5050290;28;20458;-76
2022/01/29 02:28:56;;;;;;;35.70;19.63;;;7.70;99.90;;;;;;5069538;28;20072;-76
2022/01/29 02:31:21;;;;;;;29.35;18.73;;;7.70;99.90;;;;;;5063680;28;20040;-76
2022/01/29 02:33:47;;;;;;;33.30;19.35;;;7.80;99.90;;;;;;5066702;28;20036;-76
2022/01/29 02:36:13;;;;;;;29.45;18.33;;;7.80;99.90;;;;;;5070354;28;20464;-75
2022/01/29 02:38:38;;;;;;;36.85;20.30;;;7.80;99.90;;;;;;5053306;28;20039;-75
2022/01/29 02:41:06;;;;;;;33.53;18.83;;;7.80;99.90;;;;;;5069254;28;20121;-76
2022/01/29 02:43:47;;;;;;;32.05;17.77;;;7.90;99.90;;;;;;5069017;28;20481;-76
2022/01/29 02:48:56;;;;;;;32.33;18.13;;;7.90;99.90;;;;;;5069186;28;20052;-75
2022/01/29 02:51:23;;;;;;;34.03;16.65;;;7.90;99.90;;;;;;5051969;28;20063;-75
2022/01/29 02:53:49;;;;;;;34.33;17.40;;;7.90;99.90;;;;;;5053301;28;20040;-75
2022/01/29 02:56:14;;;;;;;33.50;19.52;;;7.80;99.90;;;;;;5047542;28;20370;-76
2022/01/29 02:58:40;;;;;;;34.50;18.95;;;7.90;99.90;;;;;;5068683;28;20044;-75
2022/01/29 03:01:07;;;;;;;31.15;19.50;;;7.90;99.90;;;;;;5069143;28;20044;-75
2022/01/29 03:03:33;;;;;;;21.00;13.75;;;7.90;99.90;;;;;;5068996;28;20047;-75
2022/01/29 03:05:58;;;;;;;30.77;18.27;;;7.90;99.90;;;;;;5063853;28;20040;-76
2022/01/29 03:08:24;;;;;;;31.20;18.20;;;8.00;99.90;;;;;;5066739;28;20049;-76
2022/01/29 03:10:50;;;;;;;29.80;16.10;;;8.00;99.90;;;;;;5071241;28;20033;-77
2022/01/29 03:13:16;;;;;;;30.70;18.08;;;8.00;99.90;;;;;;5070434;28;20037;-75
2022/01/29 03:15:41;;;;;;;35.25;19.40;;;8.00;99.90;;;;;;5052561;28;20032;-76
2022/01/29 03:18:07;;;;;;;28.42;15.00;;;7.90;99.90;;;;;;5069274;28;20139;-76
2022/01/29 03:20:33;;;;;;;37.53;18.20;;;8.00;99.90;;;;;;5068583;28;20044;-76
2022/01/29 03:22:59;;;;;;;29.05;18.42;;;8.00;99.90;;;;;;5052570;28;20068;-76
2022/01/29 03:25:25;;;;;;;20.92;13.82;;;7.90;99.90;;;;;;5067856;28;20082;-76
2022/01/29 03:27:51;;;;;;;29.10;17.73;;;7.90;99.90;;;;;;5068724;28;20421;-76
2022/01/29 03:30:17;;;;;;;27.48;14.85;;;8.00;99.90;;;;;;5052256;28;20047;-76
2022/01/29 03:32:42;;;;;;;31.92;13.52;;;8.10;99.90;;;;;;5069082;28;20123;-75
2022/01/29 03:35:09;;;;;;;25.65;18.05;;;8.10;99.90;;;;;;5069314;28;20654;-76
2022/01/29 03:37:34;;;;;;;28.73;17.20;;;8.10;99.90;;;;;;5068740;28;20051;-76
2022/01/29 03:40:03;;;;;;;30.58;17.08;;;8.10;99.90;;;;;;5068396;28;20032;-77
2022/01/29 03:42:33;;;;;;;30.35;19.08;;;8.00;99.90;;;;;;5068203;28;20055;-76
2022/01/29 03:44:58;;;;;;;28.83;17.77;;;8.00;99.90;;;;;;5068911;28;20037;-76
2022/01/29 03:47:24;;;;;;;32.85;17.98;;;8.10;99.90;;;;;;5069477;28;20044;-76
2022/01/29 03:49:50;;;;;;;31.58;18.70;;;8.10;99.90;;;;;;5068766;28;20048;-76
2022/01/29 03:52:16;;;;;;;25.80;15.05;;;8.10;99.90;;;;;;5067176;28;20048;-76
2022/01/29 03:54:43;;;;;;;29.52;17.90;;;8.10;99.90;;;;;;5066671;28;20044;-76
2022/01/29 03:57:08;;;;;;;31.88;17.73;;;8.10;99.90;;;;;;5066963;28;20048;-77
2022/01/29 03:59:34;;;;;;;27.30;17.20;;;8.10;99.90;;;;;;5069815;28;20033;-77
2022/01/29 04:02:00;;;;;;;28.33;17.25;;;8.20;99.90;;;;;;5072456;28;20036;-75
2022/01/29 04:04:25;;;;;;;37.53;24.92;;;8.20;99.90;;;;;;5065917;28;20029;-76
2022/01/29 04:06:51;;;;;;;28.63;18.88;;;8.20;99.90;;;;;;5071996;28;20090;-77
2022/01/29 04:09:18;;;;;;;30.10;19.02;;;8.20;99.90;;;;;;5072147;28;20520;-76
2022/01/29 04:11:44;;;;;;;26.10;14.57;;;8.20;99.90;;;;;;5056050;28;20474;-76
2022/01/29 04:14:18;;;;;;;25.88;14.93;;;8.20;99.90;;;;;;5071598;28;20060;-76
2022/01/29 04:16:44;;;;;;;23.98;15.23;;;8.20;99.90;;;;;;5072993;28;20051;-77
2022/01/29 04:19:10;;;;;;;31.25;17.88;;;8.30;99.90;;;;;;5072554;28;20040;-76
2022/01/29 04:21:36;;;;;;;28.13;17.88;;;8.20;99.90;;;;;;5071757;28;20032;-77
2022/01/29 04:24:02;;;;;;;26.92;17.45;;;8.20;99.90;;;;;;5073326;28;20044;-77
2022/01/29 04:26:33;;;;;;;27.10;16.42;;;8.20;99.90;;;;;;5070199;28;20131;-76
2022/01/29 04:28:59;;;;;;;28.80;17.97;;;8.30;99.90;;;;;;5071428;28;20060;-76
2022/01/29 04:31:24;;;;;;;32.30;17.45;;;8.30;99.90;;;;;;5066534;28;20044;-76
2022/01/29 04:33:50;;;;;;;22.00;14.07;;;8.30;99.90;;;;;;5070696;28;20111;-76
2022/01/29 04:36:16;;;;;;;22.00;13.00;;;8.30;99.90;;;;;;5069689;28;20052;-76
2022/01/29 04:38:41;;;;;;;27.00;15.23;;;8.30;99.90;;;;;;5058086;28;20124;-76
2022/01/29 04:41:07;;;;;;;27.58;16.13;;;8.30;99.90;;;;;;5070883;28;20036;-76
2022/01/29 04:43:34;;;;;;;27.88;16.77;;;8.30;99.90;;;;;;5068523;28;20079;-77
2022/01/29 04:46:00;;;;;;;24.88;16.23;;;8.30;99.90;;;;;;5062819;28;20090;-77
2022/01/29 04:48:26;;;;;;;28.02;18.17;;;8.30;99.90;;;;;;5060288;28;20032;-75
2022/01/29 04:50:52;;;;;;;22.33;14.05;;;8.30;99.90;;;;;;5063406;28;20101;-76
2022/01/29 04:53:18;;;;;;;26.67;15.20;;;8.30;99.90;;;;;;5071036;28;20497;-75
2022/01/29 04:55:43;;;;;;;24.42;16.85;;;8.30;99.90;;;;;;5071802;28;20036;-76
2022/01/29 04:58:09;;;;;;;26.38;15.80;;;8.30;99.90;;;;;;5059797;28;20071;-76
2022/01/29 05:00:35;;;;;;;21.48;14.45;;;8.30;99.90;;;;;;5067652;28;20036;-76
2022/01/29 05:03:10;;;;;;;26.02;14.65;;;8.40;99.90;;;;;;5071449;28;20044;-76
2022/01/29 05:05:36;;;;;;;22.17;15.13;;;8.40;99.90;;;;;;5063920;28;20482;-76
2022/01/29 05:08:02;;;;;;;25.05;16.38;;;8.40;99.90;;;;;;5067378;28;20490;-76
2022/01/29 05:10:29;;;;;;;25.30;15.63;;;8.40;99.90;;;;;;5056270;28;20045;-76
2022/01/29 05:13:00;;;;;;;20.02;13.55;;;8.40;99.90;;;;;;5066603;28;20231;-74
2022/01/29 05:29:10;;;;;;;22.92;15.38;;;8.50;99.90;;;;;;5055981;28;20075;-75
2022/01/29 05:31:36;;;;;;;28.77;17.02;;;8.40;99.90;;;;;;5058964;28;20419;-76
2022/01/29 05:34:03;;;;;;;22.23;14.20;;;8.50;99.90;;;;;;5067291;28;20040;-76
2022/01/29 05:36:28;;;;;;;25.75;15.35;;;8.50;99.90;;;;;;5070495;28;20044;-76
2022/01/29 05:38:54;;;;;;;23.20;14.95;;;8.50;99.90;;;;;;5063166;28;20037;-75
2022/01/29 05:41:20;;;;;;;23.65;14.07;;;8.50;99.90;;;;;;5068978;28;20130;-77
2022/01/29 05:43:46;;;;;;;16.88;11.35;;;8.50;99.90;;;;;;5035942;28;20401;-75
2022/01/29 05:46:14;;;;;;;19.52;13.23;;;8.60;99.90;;;;;;5059477;28;20490;-75
2022/01/29 05:48:40;;;;;;;23.45;13.70;;;8.60;99.90;;;;;;5059189;28;20458;-75
2022/01/29 05:51:06;;;;;;;24.17;14.82;;;8.60;99.90;;;;;;5065295;28;20496;-76
2022/01/29 05:53:32;;;;;;;21.40;13.43;;;8.60;99.90;;;;;;5071006;28;20049;-75
2022/01/29 05:55:57;;;;;;;20.35;13.40;;;8.60;99.90;;;;;;5064860;28;20048;-74
2022/01/29 05:58:23;;;;;;;19.33;12.68;;;8.60;99.90;;;;;;5068969;28;20048;-75
2022/01/29 06:00:48;;;;;;;22.67;14.27;;;8.60;99.90;;;;;;5054481;28;20128;-76
2022/01/29 06:03:14;;;;;;;22.27;13.85;;;8.70;99.90;;;;;;5070436;28;20125;-76
2022/01/29 06:05:39;;;;;;;20.98;12.73;;;8.70;99.90;;;;;;5069465;28;20036;-75
2022/01/29 06:08:06;;;;;;;16.02;10.63;;;8.80;99.90;;;;;;5063610;28;20052;-75
2022/01/29 06:10:32;;;;;;;15.57;10.05;;;8.80;99.90;;;;;;5053886;28;20040;-75
2022/01/29 06:13:04;;;;;;;18.67;12.02;;;8.90;99.90;;;;;;5069876;28;20040;-76
2022/01/29 06:15:31;;;;;;;;;;;8.80;99.90;;;;;;5068338;28;20049;-76
2022/01/29 06:17:58;;;;;;;17.55;12.05;;;8.90;99.90;;;;;;5054006;28;19928;-77
2022/01/29 06:20:24;;;;;;;22.88;12.93;;;8.90;99.90;;;;;;5052410;28;20116;-77
2022/01/29 06:22:50;;;;;;;18.30;10.90;;;8.90;99.90;;;;;;5053261;28;20126;-75
2022/01/29 06:25:16;;;;;;;18.45;13.25;;;8.90;99.90;;;;;;5068602;28;20076;-75
2022/01/29 06:27:41;;;;;;;18.45;13.32;;;8.90;99.90;;;;;;5069502;28;20072;-76
2022/01/29 06:30:07;;;;;;;22.08;13.60;;;8.90;99.90;;;;;;5068883;28;20040;-76
2022/01/29 06:32:33;;;;;;;19.52;13.80;;;8.90;99.90;;;;;;5069919;28;20036;-76
2022/01/29 06:34:58;;;;;;;20.17;12.23;;;8.80;99.90;;;;;;5053865;28;20047;-76
2022/01/29 06:37:24;;;;;;;17.67;12.40;;;8.80;99.90;;;;;;5065121;28;20056;-76
2022/01/29 06:39:49;;;;;;;20.80;11.90;;;8.90;99.90;;;;;;5054030;28;20082;-76
2022/01/29 06:42:15;;;;;;;20.23;12.70;;;8.80;99.90;;;;;;5070018;28;20033;-76
2022/01/29 06:44:41;;;;;;;16.23;11.30;;;8.80;99.90;;;;;;5053612;28;20037;-75
2022/01/29 06:47:06;;;;;;;17.10;12.43;;;8.90;99.90;;;;;;5069375;28;20076;-76
2022/01/29 06:49:32;;;;;;;21.05;12.07;;;8.90;99.90;;;;;;5068412;28;20071;-76
2022/01/29 06:51:58;;;;;;;14.15;10.75;;;8.80;99.90;;;;;;5069890;28;20052;-76
2022/01/29 06:54:23;;;;;;;14.13;9.43;;;8.80;99.90;;;;;;5053747;28;20044;-76
2022/01/29 06:56:49;;;;;;;14.27;9.88;;;8.90;99.90;;;;;;5070072;28;20045;-76
2022/01/29 06:59:14;;;;;;;15.70;8.00;;;9.00;99.90;;;;;;5069660;28;20052;-75
2022/01/29 07:01:40;;;;;;;14.70;8.00;;;9.00;99.90;;;;;;5068261;28;20028;-75
2022/01/29 07:04:06;;;;;;;18.30;11.18;;;9.10;99.90;;;;;;5069524;28;20045;-76
2022/01/29 07:06:31;;;;;;;17.42;10.95;;;9.10;99.90;;;;;;5066342;28;20147;-75
2022/01/29 07:08:58;;;;;;;17.88;10.38;;;9.10;99.90;;;;;;5066986;28;20101;-75
2022/01/29 07:11:24;;;;;;;19.92;10.90;;;9.10;99.90;;;;;;5051571;28;20051;-76
2022/01/29 07:14:02;;;;;;;14.55;10.10;;;9.10;99.90;;;;;;5068054;28;20052;-77
2022/01/29 07:16:28;;;;;;;17.38;11.20;;;9.00;99.90;;;;;;5065671;28;20051;-77
2022/01/29 07:18:54;;;;;;;12.73;9.82;;;9.00;99.90;;;;;;5069161;28;20044;-77
2022/01/29 07:21:19;;;;;;;14.43;9.98;;;9.10;99.90;;;;;;5052107;28;20040;-77
2022/01/29 07:23:45;;;;;;;14.52;9.93;;;9.10;99.90;;;;;;5063405;28;20155;-77
2022/01/29 07:26:10;;;;;;;15.93;10.90;;;9.10;99.90;;;;;;5069423;28;20048;-77
2022/01/29 07:28:36;;;;;;;14.77;9.10;;;9.10;99.90;;;;;;5051097;28;20056;-76
2022/01/29 07:31:02;;;;;;;16.70;9.90;;;9.10;99.90;;;;;;5068506;28;20044;-75
2022/01/29 07:33:28;;;;;;;14.07;9.40;;;9.10;99.90;;;;;;5068641;28;20039;-75
2022/01/29 07:35:55;;;;;;;16.63;11.40;;;9.00;99.90;;;;;;5069118;28;20086;-76
2022/01/29 07:38:21;;;;;;;10.95;7.40;;;9.00;99.90;;;;;;5052579;28;20052;-75
2022/01/29 07:40:47;;;;;;;15.20;9.10;;;9.00;99.90;;;;;;5052148;28;20032;-75
2022/01/29 07:43:12;;;;;;;14.80;10.38;;;9.00;99.90;;;;;;5068356;28;20044;-75
2022/01/29 07:45:38;;;;;;;14.98;9.20;;;9.00;99.90;;;;;;5069333;28;20158;-76
2022/01/29 07:48:03;;;;;;;14.32;10.50;;;9.10;99.90;;;;;;5067791;28;20178;-76
2022/01/29 07:50:29;;;;;;;18.00;9.50;;;9.00;99.90;;;;;;5070809;22;20066;-76
2022/01/29 07:52:57;;;;;;;16.63;10.43;;;9.00;99.90;;;;;;5065685;28;20100;-76
2022/01/29 07:55:23;;;;;;;12.65;8.88;;;9.00;99.90;;;;;;5026934;28;20045;-75
2022/01/29 07:57:49;;;;;;;17.83;10.10;;;9.00;99.90;;;;;;5020987;28;20124;-76
2022/01/29 08:00:15;;;;;;;18.63;10.82;;;9.00;99.90;;;;;;5036771;28;20131;-76
2022/01/29 08:02:41;;;;;;;18.10;11.75;;;8.90;99.90;;;;;;5044304;28;20068;-77
2022/01/29 08:05:07;;;;;;;21.60;10.85;;;8.90;99.90;;;;;;5033511;28;20047;-76
2022/01/29 08:07:32;;;;;;;21.08;12.07;;;8.90;99.90;;;;;;5013208;28;20043;-77
2022/01/29 08:09:58;;;;;;;19.60;10.85;;;8.90;99.90;;;;;;5034382;28;20032;-76
2022/01/29 08:12:23;;;;;;;15.73;10.30;;;8.90;99.90;;;;;;5047598;28;20047;-77
2022/01/29 08:14:49;;;;;;;20.42;11.63;;;8.90;99.90;;;;;;5043207;28;20461;-76
2022/01/29 08:17:14;;;;;;;14.95;9.30;;;8.90;99.90;;;;;;5045352;28;20056;-78
2022/01/29 08:19:40;;;;;;;15.93;11.20;;;8.90;99.90;;;;;;5034293;28;20055;-78
2022/01/29 08:22:06;;;;;;;18.63;11.02;;;9.00;99.90;;;;;;5008165;28;20040;-77
2022/01/29 08:24:31;;;;;;;16.13;11.00;;;8.90;99.90;;;;;;5035142;28;20124;-77
2022/01/29 08:26:57;;;;;;;18.15;11.80;;;8.90;99.90;;;;;;5030583;28;20550;-79
2022/01/29 08:29:22;;;;;;;15.75;11.57;;;8.90;99.90;;;;;;5012424;28;20063;-77
2022/01/29 08:31:48;;;;;;;13.43;9.90;;;8.90;99.90;;;;;;5033177;28;20037;-77
2022/01/29 08:34:14;;;;;;;16.88;10.30;;;8.90;99.90;;;;;;5029832;28;20054;-77
2022/01/29 08:36:40;;;;;;;15.50;11.07;;;9.00;99.90;;;;;;5032797;28;20045;-76
2022/01/29 08:39:06;;;;;;;19.35;10.75;;;9.00;99.90;;;;;;5013956;28;20045;-77
2022/01/29 08:41:32;;;;;;;18.92;10.65;;;8.90;99.90;;;;;;5032040;28;20678;-76
2022/01/29 08:43:57;;;;;;;16.80;9.32;;;9.00;99.90;;;;;;5025369;28;20037;-76
2022/01/29 08:46:23;;;;;;;13.70;8.75;;;9.00;99.90;;;;;;5023929;28;20071;-76
2022/01/29 08:48:50;;;;;;;13.25;8.38;;;9.10;99.90;;;;;;5041945;28;20509;-77
2022/01/29 08:51:16;;;;;;;14.07;9.18;;;9.10;99.90;;;;;;5032828;28;20140;-76
2022/01/29 08:53:41;;;;;;;14.43;8.50;;;9.10;99.90;;;;;;5039998;28;20112;-76
2022/01/29 08:56:07;;;;;;;13.98;9.05;;;9.20;99.90;;;;;;5049953;28;20049;-76
2022/01/29 08:58:33;;;;;;;19.58;9.07;;;9.20;99.90;;;;;;5029809;28;20037;-77
2022/01/29 09:00:59;;;;;;;10.20;6.93;;;9.20;99.90;;;;;;5033218;28;20045;-76
2022/01/29 09:03:25;;;;;;;13.50;7.30;;;9.30;99.90;;;;;;5027804;28;20102;-76
2022/01/29 09:05:50;;;;;;;11.55;6.28;;;9.30;99.90;;;;;;5028728;28;20128;-78
2022/01/29 09:08:18;;;;;;;10.57;6.57;;;9.40;99.90;;;;;;5063073;28;20390;-77
2022/01/29 09:10:44;;;;;;;9.98;7.22;;;9.40;99.90;;;;;;5019877;28;20049;-77
2022/01/29 09:13:11;;;;;;;9.55;6.07;;;9.40;99.90;;;;;;5040601;28;20382;-77
2022/01/29 09:15:37;;;;;;;11.13;5.95;;;9.50;99.90;;;;;;5021458;28;20056;-77
2022/01/29 09:18:03;;;;;;;12.13;6.25;;;9.50;99.90;;;;;;5035752;28;20041;-76
2022/01/29 09:20:29;;;;;;;11.35;6.22;;;9.60;99.90;;;;;;5037010;28;20482;-71
2022/01/29 09:22:55;;;;;;;12.93;6.18;;;9.50;99.90;;;;;;5036527;28;20095;-71
2022/01/29 09:25:20;;;;;;;8.90;5.47;;;9.60;99.90;;;;;;5054049;28;20510;-71
2022/01/29 09:27:46;;;;;;;11.55;6.18;;;9.60;99.90;;;;;;5069961;28;20033;-71
2022/01/29 09:30:12;;;;;;;13.48;6.75;;;9.60;99.90;;;;;;5019827;28;20052;-71
2022/01/29 09:32:37;;;;;;;10.85;6.60;;;9.60;99.90;;;;;;5054084;28;20056;-71
2022/01/29 09:35:04;;;;;;;9.40;5.85;;;9.60;99.90;;;;;;5054034;28;20498;-72
2022/01/29 09:37:30;;;;;;;5.75;3.42;;;9.70;99.90;;;;;;5035377;28;20426;-71
2022/01/29 09:39:55;;;;;;;8.90;5.20;;;9.90;99.90;;;;;;5053374;28;20086;-71
2022/01/29 09:42:21;;;;;;;10.20;5.28;;;9.90;99.90;;;;;;5053582;28;20036;-71
2022/01/29 09:44:48;;;;;;;8.50;4.55;;;9.90;99.90;;;;;;5052293;28;20040;-71
2022/01/29 09:47:16;;;;;;;8.05;4.40;;;9.90;99.90;;;;;;5018846;28;20602;-71
2022/01/29 09:49:43;;;;;;;13.25;5.00;;;10.00;99.90;;;;;;5019061;28;20116;-71
2022/01/29 09:52:09;;;;;;;7.18;3.50;;;10.00;99.90;;;;;;5035287;28;20102;-71
2022/01/29 09:54:35;;;;;;;10.45;5.13;;;10.00;99.90;;;;;;5068761;28;20123;-71
2022/01/29 09:57:01;;;;;;;10.88;4.45;;;9.90;99.90;;;;;;5068986;28;20049;-71
2022/01/29 09:59:26;;;;;;;5.90;3.55;;;9.90;99.90;;;;;;5050357;28;20046;-71
2022/01/29 10:01:52;;;;;;;9.27;4.80;;;10.00;99.90;;;;;;5015517;28;20048;-71
2022/01/29 10:04:17;;;;;;;9.48;4.53;;;10.00;99.90;;;;;;5033453;28;20033;-71
2022/01/29 10:06:46;;;;;;;8.05;4.35;;;9.90;99.90;;;;;;5022280;28;20060;-71
2022/01/29 10:09:31;;;;;;;11.65;4.30;;;10.00;99.90;;;;;;5035151;28;20059;-71
2022/01/29 10:12:15;;;;;;;11.35;4.50;;;10.10;99.90;;;;;;5035178;28;20045;-71
2022/01/29 10:14:49;;;;;;;7.55;4.05;;;10.10;99.90;;;;;;5017526;28;20122;-72
2022/01/29 10:17:37;;;;;;;9.35;3.72;;;10.10;99.90;;;;;;5018144;28;20049;-71
2022/01/29 10:20:11;;;;;;;9.07;4.57;;;10.20;99.90;;;;;;5068061;28;20079;-71
2022/01/29 10:22:37;;;;;;;5.97;3.25;;;10.20;99.90;;;;;;5018082;28;20049;-71
2022/01/29 10:25:12;;;;;;;8.75;3.88;;;10.30;99.90;;;;;;5034724;28;20056;-72
2022/01/29 10:27:39;;;;;;;9.57;3.30;;;10.30;99.90;;;;;;5067845;28;20097;-71
2022/01/29 10:30:08;;;;;;;9.40;3.92;;;10.30;99.90;;;;;;5067844;28;20448;-72
2022/01/29 10:32:35;;;;;;;6.82;3.38;;;10.30;99.90;;;;;;5016977;28;20041;-71
2022/01/29 10:35:01;;;;;;;9.07;4.03;;;10.30;99.90;;;;;;5067951;28;20044;-72
2022/01/29 10:37:27;;;;;;;8.65;3.40;;;10.30;99.90;;;;;;5067214;28;20049;-71
2022/01/29 10:39:55;;;;;;;11.45;4.00;;;10.30;99.90;;;;;;5067357;28;20044;-71
2022/01/29 10:42:32;;;;;;;7.93;3.38;;;10.40;99.90;;;;;;5052166;28;20682;-71
2022/01/29 10:45:06;;;;;;;6.68;2.97;;;10.40;99.90;;;;;;5067467;28;20123;-71
2022/01/29 10:47:55;;;;;;;9.63;3.25;;;10.40;99.90;;;;;;5067254;28;20033;-71
2022/01/29 10:50:20;;;;;;;11.30;3.50;;;10.40;99.90;;;;;;5050274;28;20053;-71
2022/01/29 10:52:47;;;;;;;9.93;3.35;;;10.30;99.90;;;;;;5067229;28;20041;-71
2022/01/29 10:55:13;;;;;;;9.65;3.30;;;10.30;99.90;;;;;;5066595;28;20120;-71
2022/01/29 10:57:41;;;;;;;7.10;2.67;;;10.40;99.90;;;;;;5066718;28;20124;-71
2022/01/29 11:00:25;;;;;;;8.05;2.72;;;10.30;99.90;;;;;;5033831;28;20099;-71
2022/01/29 11:02:53;;;;;;;9.50;2.72;;;10.40;99.90;;;;;;5033951;28;20063;-71
2022/01/29 11:05:22;;;;;;;9.00;2.72;;;10.40;99.90;;;;;;5067118;28;20063;-71
2022/01/29 11:07:51;;;;;;;9.60;3.03;;;10.50;99.90;;;;;;5032676;28;20364;-72
2022/01/29 11:10:18;;;;;;;8.60;2.67;;;10.50;99.90;;;;;;5017202;28;20037;-72
2022/01/29 11:12:46;;;;;;;9.55;3.03;;;10.40;99.90;;;;;;5033729;28;20195;-71
2022/01/29 11:15:14;;;;;;;9.80;2.80;;;10.40;99.90;;;;;;5066947;28;20088;-72
2022/01/29 11:17:40;;;;;;;6.05;2.65;;;10.40;99.90;;;;;;5066542;28;20045;-72
2022/01/29 11:20:06;;;;;;;6.72;2.55;;;10.40;99.90;;;;;;5066913;28;20048;-71
2022/01/29 11:22:35;;;;;;;9.70;2.67;;;10.40;99.90;;;;;;5017390;28;20521;-71
2022/01/29 11:25:14;;;;;;;7.50;2.60;;;10.40;99.90;;;;;;5016884;28;20348;-72
2022/01/29 11:27:43;;;;;;;6.82;2.67;;;10.50;99.90;;;;;;5067314;28;20057;-71
2022/01/29 11:30:08;;;;;;;4.53;1.92;;;10.50;99.90;;;;;;5066795;28;20120;-71
2022/01/29 11:32:42;;;;;;;7.70;2.70;;;10.60;99.90;;;;;;5028014;28;20133;-77
2022/01/29 11:35:22;;;;;;;7.30;2.25;;;10.50;99.90;;;;;;5037813;28;20040;-76
2022/01/29 11:37:53;;;;;;;6.45;2.38;;;10.50;99.90;;;;;;5037533;28;20509;-75
2022/01/29 11:40:29;;;;;;;5.90;2.15;;;10.50;99.90;;;;;;5030491;28;20049;-75
2022/01/29 11:43:01;;;;;;;8.25;2.42;;;10.60;99.90;;;;;;5023004;28;20033;-75
2022/01/29 11:45:41;;;;;;;6.15;1.80;;;10.60;99.90;;;;;;5035066;28;20033;-75
2022/01/29 11:48:36;;;;;;;4.53;1.85;;;10.70;99.90;;;;;;5048155;28;20052;-76
2022/01/29 11:51:02;;;;;;;7.95;2.70;;;10.80;99.90;;;;;;5032444;28;20061;-75
2022/01/29 11:53:50;;;;;;;6.30;2.15;;;10.70;99.90;;;;;;5032443;28;20118;-75
2022/01/29 11:56:33;;;;;;;5.57;2.20;;;10.70;99.90;;;;;;5016220;28;20071;-74
2022/01/29 11:59:20;;;;;;;8.40;2.08;;;10.80;99.90;;;;;;5012347;28;20040;-75
2022/01/29 12:01:45;;;;;;;5.82;1.77;;;10.80;99.90;;;;;;5032681;28;20041;-74
2022/01/29 12:04:11;;;;;;;4.55;1.58;;;10.80;99.90;;;;;;5030060;28;20036;-74
2022/01/29 12:06:57;;;;;;;6.45;1.50;;;10.90;99.90;;;;;;5001387;28;20100;-75
2022/01/29 12:09:25;;;;;;;4.65;1.92;;;11.00;99.90;;;;;;5022540;28;20491;-74
2022/01/29 12:12:26;;;;;;;6.70;1.70;;;10.90;99.90;;;;;;5028373;28;20138;-75
2022/01/29 12:14:56;;;;;;;5.28;1.40;;;10.90;99.90;;;;;;5010898;28;20094;-74
2022/01/29 12:17:41;;;;;;;7.10;2.03;;;11.00;99.90;;;;;;5032675;28;20052;-74
2022/01/29 12:20:08;;;;;;;3.80;1.90;;;11.00;99.90;;;;;;5025429;28;20491;-75
2022/01/29 12:22:36;;;;;;;5.90;1.70;;;11.00;99.90;;;;;;5037799;28;20029;-75
2022/01/29 12:25:10;;;;;;;7.90;2.10;;;11.00;99.90;;;;;;5066340;28;20128;-74
2022/01/29 12:27:55;;;;;;;9.95;1.85;;;11.10;99.90;;;;;;5012964;28;20536;-76
2022/01/29 12:30:28;;;;;;;5.00;1.77;;;11.10;99.90;;;;;;5031530;28;20171;-73
2022/01/29 12:33:06;;;;;;;5.60;1.50;;;11.20;99.90;;;;;;5030215;28;20037;-76
2022/01/29 12:35:58;;;;;;;6.13;1.50;;;11.30;99.90;;;;;;5031610;28;20064;-75
2022/01/29 12:38:29;;;;;;;4.13;1.43;;;11.30;99.90;;;;;;5024294;28;20128;-76
2022/01/29 12:41:03;;;;;;;8.25;1.70;;;11.30;99.90;;;;;;5030520;28;20299;-75
2022/01/29 12:43:52;;;;;;;6.47;1.70;;;11.20;99.90;;;;;;5032704;28;20040;-76
2022/01/29 12:46:24;;;;;;;3.60;1.55;;;11.20;99.90;;;;;;5030664;28;20095;-74
2022/01/29 12:49:07;;;;;;;4.35;1.45;;;11.30;99.90;;;;;;5011528;28;20417;-74
2022/01/29 12:51:57;;;;;;;7.43;2.72;;;11.20;99.90;;;;;;5046136;28;20143;-75
2022/01/29 12:54:25;;;;;;;8.13;1.90;;;11.10;99.90;;;;;;5029032;28;20044;-75
2022/01/29 12:56:51;;;;;;;6.18;1.35;;;11.20;99.90;;;;;;5033569;28;20049;-75
2022/01/29 12:59:17;;;;;;;3.85;1.50;;;11.20;99.90;;;;;;5034224;28;20048;-74
2022/01/29 13:01:45;;;;;;;6.55;1.52;;;11.20;99.90;;;;;;5010231;28;20059;-74